aviador You're here:

KSGF Decoded Metar

SPRINGFIELD in MO, USA
Report Time2017-08-16 14:52:00
UTC Time2017-08-16 15:07:10
Flight Rules vfr VFR
Wind170° at 15 kt
W.Decomp.*RWY 14: 13.4 kt HW 6.8 kt RCW
RWY 20: 12.6 kt HW 8.2 kt LCW
W.Rank170° ranks 3
Current wind is above 170° avg. (9.3)
Visibility9999 m
Phenomena:N/A
Clouds:N/A
Expected CloudBase > 800 ft AGL from Temp-Dew spread
CeilingNone
Temp26°C (ISA +14)
Dew Point24°C (89% RH)
QNH1013 hPa
Density Alt3,241 ft
Elevation1,280 ft
Report Wrong Elevation
Raw Report
KSGF 161452Z 17015KT 10SM CLR 26/24 A2992 RMK AO2 SLP118 T02610239
50007=

Extra information for KSGF:More info

Metar Taf Metar & Taf Last 4 Metars F.Rules Stats Wind Profile Meteogram Temp Stats Airport Information Weather charts Add Link Nearby VenuesMetar ALERT Operation Metar Decoded Social comments

AIRNAV info for KSGF